Time;durP1;ratioP1;P1;durP2;ratioP2;P2;SDS_P1;SDS_P2;PMS_P1;PMS_P2;Temp;Humidity;BMP_temperature;BMP_pressure;BME280_temperature;BME280_humidity;BME280_pressure;Samples;Min_cycle;Max_cycle;Signal;HPM_P1;HPM_P2
2022/03/25 00:00:33;;;;;;;;;;;8.60;46.80;;;;;;8408524;28;19957;-73
2022/03/25 00:04:35;;;;;;;;;;;8.50;46.90;;;;;;8401040;28;20151;-73
2022/03/25 00:08:37;;;;;;;;;;;8.50;47.10;;;;;;8392192;28;20302;-73
2022/03/25 00:12:38;;;;;;;;;;;8.40;47.40;;;;;;8396031;28;19928;-73
2022/03/25 00:16:40;;;;;;;;;;;8.30;47.20;;;;;;8396890;28;20580;-73
2022/03/25 00:20:42;;;;;;;;;;;8.20;47.20;;;;;;8394307;28;19924;-73
2022/03/25 00:24:44;;;;;;;;;;;8.20;47.40;;;;;;8410512;28;19933;-73
2022/03/25 00:28:45;;;;;;;;;;;8.10;47.40;;;;;;8405697;28;19928;-73
2022/03/25 00:32:47;;;;;;;;;;;8.00;47.60;;;;;;8381846;28;20234;-73
2022/03/25 00:36:49;;;;;;;;;;;8.00;47.60;;;;;;8426501;28;20307;-73
2022/03/25 00:40:51;;;;;;;;;;;8.00;47.40;;;;;;8408143;28;19931;-73
2022/03/25 00:44:54;;;;;;;;;;;8.00;47.10;;;;;;8410356;28;20033;-73
2022/03/25 00:48:56;;;;;;;;;;;7.90;47.30;;;;;;8397181;28;20527;-74
2022/03/25 00:52:57;;;;;;;;;;;7.90;47.10;;;;;;8403665;28;20288;-73
2022/03/25 00:56:59;;;;;;;;;;;7.80;48.00;;;;;;8403271;28;19925;-73
2022/03/25 01:01:01;;;;;;;;;;;7.80;47.90;;;;;;8407422;28;19931;-73
2022/03/25 01:05:03;;;;;;;;;;;7.70;47.10;;;;;;8412992;28;19946;-73
2022/03/25 01:09:07;;;;;;;;;;;7.50;47.40;;;;;;8392118;28;19924;-73
2022/03/25 01:13:10;;;;;;;;;;;7.40;47.70;;;;;;8409358;28;20173;-73
2022/03/25 01:17:12;;;;;;;;;;;7.30;48.00;;;;;;8406060;28;19955;-73
2022/03/25 01:21:14;;;;;;;;;;;7.30;48.30;;;;;;8398314;28;19932;-73
2022/03/25 01:25:16;;;;;;;;;;;7.20;48.60;;;;;;8416141;28;20493;-73
2022/03/25 01:29:19;;;;;;;;;;;7.20;48.80;;;;;;8417206;28;20279;-73
2022/03/25 01:33:23;;;;;;;;;;;7.00;48.80;;;;;;8394864;28;19924;-73
2022/03/25 01:37:25;;;;;;;;;;;6.90;48.50;;;;;;8415738;28;19928;-73
2022/03/25 01:41:26;;;;;;;;;;;6.80;48.70;;;;;;8413688;28;19940;-73
2022/03/25 01:45:30;;;;;;;;;;;6.80;48.50;;;;;;8407652;28;20283;-73
2022/03/25 01:49:32;;;;;;;;;;;6.80;48.50;;;;;;8393650;28;19924;-73
2022/03/25 01:53:33;;;;;;;;;;;6.70;48.50;;;;;;8421702;28;19924;-73
2022/03/25 01:57:35;;;;;;;;;;;6.70;47.80;;;;;;8398466;28;19931;-73
2022/03/25 02:01:40;;;;;;;;;;;6.60;48.20;;;;;;8412526;28;20264;-73
2022/03/25 02:05:43;;;;;;;;;;;6.60;48.30;;;;;;8423625;28;19969;-73
2022/03/25 02:09:44;;;;;;;;;;;6.50;48.70;;;;;;8411414;28;20280;-73
2022/03/25 02:13:46;;;;;;;;;;;6.50;48.70;;;;;;8420277;28;20259;-73
2022/03/25 02:17:47;;;;;;;;;;;6.50;48.90;;;;;;8404499;28;19928;-73
2022/03/25 02:21:49;;;;;;;;;;;6.50;48.90;;;;;;8414555;28;19928;-73
2022/03/25 02:25:52;;;;;;;;;;;6.50;47.90;;;;;;8412196;28;19932;-73
2022/03/25 02:29:53;;;;;;;;;;;6.40;48.00;;;;;;8424797;28;19924;-73
2022/03/25 02:33:56;;;;;;;;;;;6.30;48.50;;;;;;8414535;28;19931;-73
2022/03/25 02:37:58;;;;;;;;;;;6.20;48.50;;;;;;8394947;28;19925;-73
2022/03/25 02:42:00;;;;;;;;;;;6.10;48.60;;;;;;8409401;28;19928;-73
2022/03/25 02:46:02;;;;;;;;;;;6.00;48.40;;;;;;8421891;28;19936;-73
2022/03/25 02:50:04;;;;;;;;;;;6.00;48.80;;;;;;8393537;28;19924;-73
2022/03/25 02:54:06;;;;;;;;;;;5.80;49.10;;;;;;8408011;28;19924;-73
2022/03/25 02:58:08;;;;;;;;;;;5.70;49.10;;;;;;8406484;28;19935;-73
2022/03/25 03:02:10;;;;;;;;;;;5.60;48.80;;;;;;8411465;28;19928;-73
2022/03/25 03:06:12;;;;;;;;;;;5.50;48.70;;;;;;8413787;28;19928;-73
2022/03/25 03:10:13;;;;;;;;;;;5.40;49.40;;;;;;8395683;28;19935;-73
2022/03/25 03:14:15;;;;;;;;;;;5.30;49.50;;;;;;8387204;28;19925;-73
2022/03/25 03:18:17;;;;;;;;;;;5.30;49.40;;;;;;8396661;28;19924;-73
2022/03/25 03:22:18;;;;;;;;;;;5.30;49.20;;;;;;8406250;28;20375;-73
2022/03/25 03:26:20;;;;;;;;;;;5.30;49.20;;;;;;8412333;28;20351;-73
2022/03/25 03:30:22;;;;;;;;;;;5.20;49.50;;;;;;8407054;28;20371;-73
2022/03/25 03:34:24;;;;;;;;;;;5.10;49.20;;;;;;8401066;28;20770;-73
2022/03/25 03:38:26;;;;;;;;;;;5.10;49.00;;;;;;8414600;28;19931;-73
2022/03/25 03:42:28;;;;;;;;;;;5.00;49.00;;;;;;8404553;28;20264;-73
2022/03/25 03:46:29;;;;;;;;;;;4.90;49.50;;;;;;8422520;28;19939;-73
2022/03/25 03:50:31;;;;;;;;;;;4.90;49.40;;;;;;8390973;28;19924;-73
2022/03/25 03:54:33;;;;;;;;;;;4.90;49.40;;;;;;8410587;28;19933;-73
2022/03/25 03:58:34;;;;;;;;;;;4.80;48.90;;;;;;8413320;28;19942;-72
2022/03/25 04:02:36;;;;;;;;;;;4.80;49.70;;;;;;8412511;28;19971;-73
2022/03/25 04:06:38;;;;;;;;;;;4.70;49.40;;;;;;8407836;28;19939;-73
2022/03/25 04:10:39;;;;;;;;;;;4.70;49.40;;;;;;8409037;28;19928;-73
2022/03/25 04:14:41;;;;;;;;;;;4.60;48.80;;;;;;8409954;28;19931;-73
2022/03/25 04:18:44;;;;;;;;;;;4.50;49.20;;;;;;8403406;28;19928;-73
2022/03/25 04:22:45;;;;;;;;;;;4.40;49.10;;;;;;8380996;28;19932;-74
2022/03/25 04:26:47;;;;;;;;;;;4.40;49.20;;;;;;8414241;28;19924;-73
2022/03/25 04:30:49;;;;;;;;;;;4.30;49.80;;;;;;8392474;28;20484;-73
2022/03/25 04:34:51;;;;;;;;;;;4.20;49.90;;;;;;8415496;28;19986;-73
2022/03/25 04:38:52;;;;;;;;;;;4.20;49.40;;;;;;8413643;28;19932;-73
2022/03/25 04:42:54;;;;;;;;;;;4.20;49.40;;;;;;8404092;28;19939;-73
2022/03/25 04:46:56;;;;;;;;;;;4.20;49.80;;;;;;8413414;28;20299;-73
2022/03/25 04:50:58;;;;;;;;;;;4.10;50.30;;;;;;8409176;28;20384;-73
2022/03/25 04:55:00;;;;;;;;;;;4.00;49.90;;;;;;8409451;28;19928;-73
2022/03/25 04:59:03;;;;;;;;;;;3.90;49.70;;;;;;8393725;28;19932;-73
2022/03/25 05:03:05;;;;;;;;;;;3.80;50.30;;;;;;8398453;28;20366;-73
2022/03/25 05:07:12;;;;;;;;;;;3.80;50.00;;;;;;8388246;28;20017;-73
2022/03/25 05:11:14;;;;;;;;;;;3.80;49.80;;;;;;8399431;28;20374;-73
2022/03/25 05:15:15;;;;;;;;;;;3.70;50.00;;;;;;8405694;28;19925;-73
2022/03/25 05:19:17;;;;;;;;;;;3.70;50.10;;;;;;8378334;28;20438;-73
2022/03/25 05:23:19;;;;;;;;;;;3.60;50.00;;;;;;8382174;28;19924;-73
2022/03/25 05:27:20;;;;;;;;;;;3.60;50.10;;;;;;8435517;28;19932;-72
2022/03/25 05:31:22;;;;;;;;;;;3.50;50.00;;;;;;8427353;28;20372;-73
2022/03/25 05:35:25;;;;;;;;;;;3.50;50.10;;;;;;8431241;28;19928;-73
2022/03/25 05:39:26;;;;;;;;;;;3.40;50.20;;;;;;8428174;28;19928;-73
2022/03/25 05:43:28;;;;;;;;;;;3.40;50.40;;;;;;8427475;28;20845;-73
2022/03/25 05:47:30;;;;;;;;;;;3.30;51.00;;;;;;8425563;28;19935;-73
2022/03/25 05:51:32;;;;;;;;;;;3.30;50.90;;;;;;8402147;28;19925;-73
2022/03/25 05:55:33;;;;;;;;;;;3.30;51.60;;;;;;8421199;28;19931;-73
2022/03/25 05:59:35;;;;;;;;;;;3.20;52.00;;;;;;8400245;28;20423;-73
2022/03/25 06:03:37;;;;;;;;;;;3.30;51.70;;;;;;8429347;28;19970;-73
2022/03/25 06:07:39;;;;;;;;;;;3.30;51.80;;;;;;8426299;28;19935;-73
2022/03/25 06:11:41;;;;;;;;;;;3.30;52.10;;;;;;8410841;28;20387;-73
2022/03/25 06:15:44;;;;;;;;;;;3.30;52.40;;;;;;8408911;28;19931;-73
2022/03/25 06:19:45;;;;;;;;;;;3.40;53.20;;;;;;8427479;28;19928;-74
2022/03/25 06:23:47;;;;;;;;;;;3.50;53.30;;;;;;8424839;28;19935;-73
2022/03/25 06:27:50;;;;;;;;;;;3.50;53.20;;;;;;8431156;28;19928;-73
2022/03/25 06:31:52;;;;;;;;;;;3.60;53.90;;;;;;8423506;28;20272;-73
2022/03/25 06:35:53;;;;;;;;;;;3.70;54.00;;;;;;8404522;28;20298;-73
2022/03/25 06:39:55;;;;;;;;;;;3.80;54.20;;;;;;8420864;28;19939;-73
2022/03/25 06:43:57;;;;;;;;;;;3.90;54.70;;;;;;8401005;28;19935;-73
2022/03/25 06:47:59;;;;;;;;;;;4.10;55.80;;;;;;8423138;28;19943;-73
2022/03/25 06:52:00;;;;;;;;;;;4.30;54.90;;;;;;8393103;28;19952;-73
2022/03/25 06:56:03;;;;;;;;;;;4.50;55.70;;;;;;8419199;28;20055;-73
2022/03/25 07:00:05;;;;;;;;;;;4.70;56.50;;;;;;8409374;28;20371;-73
2022/03/25 07:04:07;;;;;;;;;;;5.00;56.30;;;;;;8417567;28;19925;-73
2022/03/25 07:08:09;;;;;;;;;;;5.20;56.90;;;;;;8416164;28;19943;-73
2022/03/25 07:12:12;;;;;;;;;;;5.50;57.20;;;;;;8413258;28;19932;-73
2022/03/25 07:16:13;;;;;;;;;;;5.80;56.80;;;;;;8419504;28;19999;-73
2022/03/25 07:20:16;;;;;;;;;;;6.10;57.30;;;;;;8423787;28;19950;-73
2022/03/25 07:24:18;;;;;;;;;;;6.40;58.20;;;;;;8423150;28;19924;-73
2022/03/25 07:28:19;;;;;;;;;;;6.70;58.90;;;;;;8432192;28;19924;-73
2022/03/25 07:32:21;;;;;;;;;;;7.00;58.70;;;;;;8422647;28;20356;-73
2022/03/25 07:36:23;;;;;;;;;;;7.30;59.10;;;;;;8408330;28;19924;-74
2022/03/25 07:40:24;;;;;;;;;;;7.60;59.40;;;;;;8417004;28;19931;-73
2022/03/25 07:44:26;;;;;;;;;;;7.90;59.30;;;;;;8428231;28;19971;-74
2022/03/25 07:48:28;;;;;;;;;;;8.10;59.30;;;;;;8418966;28;19924;-73
2022/03/25 07:52:31;;;;;;;;;;;8.40;59.60;;;;;;8418442;28;19931;-74
2022/03/25 07:56:34;;;;;;;;;;;8.60;59.10;;;;;;8408130;28;20363;-74
2022/03/25 08:00:35;;;;;;;;;;;8.80;59.70;;;;;;8421229;28;19925;-74
2022/03/25 08:04:38;;;;;;;;;;;9.10;59.60;;;;;;8423540;28;20298;-73
2022/03/25 08:08:39;;;;;;;;;;;9.30;60.30;;;;;;8416367;28;19931;-74
2022/03/25 08:12:41;;;;;;;;;;;9.50;60.20;;;;;;8419006;28;19974;-74
2022/03/25 08:16:45;;;;;;;;;;;9.70;60.50;;;;;;8421537;28;20004;-74
2022/03/25 08:20:47;;;;;;;;;;;9.90;61.40;;;;;;8423080;28;20386;-73
2022/03/25 08:29:10;;;;;;;;;;;10.30;60.20;;;;;;8413443;28;19928;-73
2022/03/25 08:33:22;;;;;;;;;;;10.50;60.70;;;;;;8402879;28;19969;-74
2022/03/25 08:37:23;;;;;;;;;;;10.70;60.20;;;;;;8422022;28;19924;-74
2022/03/25 08:41:25;;;;;;;;;;;10.90;60.70;;;;;;8416909;28;20390;-73
2022/03/25 08:45:27;;;;;;;;;;;11.20;60.80;;;;;;8406028;28;19928;-73
2022/03/25 08:49:30;;;;;;;;;;;11.40;60.20;;;;;;8421444;28;19932;-73
2022/03/25 08:53:32;;;;;;;;;;;11.60;60.40;;;;;;8418151;28;20046;-74
2022/03/25 08:57:35;;;;;;;;;;;11.80;60.40;;;;;;8427388;28;19928;-73
2022/03/25 09:01:36;;;;;;;;;;;12.00;60.40;;;;;;8412680;28;19929;-73
2022/03/25 09:05:38;;;;;;;;;;;12.30;60.80;;;;;;8417796;28;20417;-73
2022/03/25 09:09:40;;;;;;;;;;;12.50;60.70;;;;;;8417669;28;19924;-73
2022/03/25 09:13:42;;;;;;;;;;;12.60;60.70;;;;;;8420583;28;19924;-73
2022/03/25 09:17:45;;;;;;;;;;;12.80;60.60;;;;;;8415232;28;19924;-73
2022/03/25 09:21:46;;;;;;;;;;;13.00;61.20;;;;;;8428372;28;19924;-73
2022/03/25 09:25:48;;;;;;;;;;;13.30;61.30;;;;;;8426419;28;19929;-73
2022/03/25 09:29:50;;;;;;;;;;;13.50;61.50;;;;;;8427318;28;19931;-73
2022/03/25 09:35:08;;;;;;;;;;;13.80;61.60;;;;;;8437765;28;19928;-74
2022/03/25 09:38:13;;;;;;;;;;;14.00;61.60;;;;;;8433723;28;20195;-74
2022/03/25 09:42:15;;;;;;;;;;;14.10;61.50;;;;;;8417522;28;20287;-73
2022/03/25 09:46:17;;;;;;;;;;;14.30;61.30;;;;;;8404428;28;19932;-73
2022/03/25 09:50:23;;;;;;;;;;;14.40;61.00;;;;;;8401297;28;19924;-73
2022/03/25 09:54:26;;;;;;;;;;;14.50;61.00;;;;;;8419636;28;19924;-74
2022/03/25 09:58:28;;;;;;;;;;;14.60;60.90;;;;;;8426919;28;19924;-74
2022/03/25 10:02:30;;;;;;;;;;;14.70;61.10;;;;;;8428335;28;19924;-74
2022/03/25 10:06:44;;;;;;;;;;;15.00;61.30;;;;;;8426348;28;20008;-74
2022/03/25 10:10:46;;;;;;;;;;;15.30;60.80;;;;;;8423527;28;20394;-74
2022/03/25 10:14:51;;;;;;;;;;;15.70;61.10;;;;;;8425503;28;20379;-74
2022/03/25 10:18:53;;;;;;;;;;;16.20;62.20;;;;;;8428642;28;20395;-73
2022/03/25 10:23:02;;;;;;;;;;;16.50;64.60;;;;;;8423565;28;19932;-74
2022/03/25 10:27:06;;;;;;;;;;;17.00;68.00;;;;;;8409770;28;20402;-73
2022/03/25 10:31:11;;;;;;;;;;;17.40;71.70;;;;;;8418902;28;19928;-73
2022/03/25 10:35:13;;;;;;;;;;;17.80;75.00;;;;;;8430164;28;19977;-74
2022/03/25 10:39:26;;;;;;;;;;;18.10;76.80;;;;;;8419766;28;19935;-74
2022/03/25 10:43:27;;;;;;;;;;;18.40;77.90;;;;;;8423651;28;19924;-74
2022/03/25 10:47:31;;;;;;;;;;;18.70;79.10;;;;;;8421346;28;19924;-74
2022/03/25 10:51:34;;;;;;;;;;;18.90;80.70;;;;;;8414449;28;19969;-74
2022/03/25 10:55:36;;;;;;;;;;;19.00;78.30;;;;;;8425106;28;19924;-74
2022/03/25 10:59:37;;;;;;;;;;;19.00;75.30;;;;;;8411245;28;19939;-74
2022/03/25 11:03:41;;;;;;;25.80;16.70;;;19.00;70.70;;;;;;8415843;28;19939;-74
2022/03/25 11:07:44;;;;;;;;;;;19.10;69.90;;;;;;8412351;28;20052;-74
2022/03/25 11:11:47;;;;;;;;;;;19.30;71.20;;;;;;8415543;28;19924;-74
2022/03/25 11:15:51;;;;;;;;;;;19.70;73.30;;;;;;8419976;28;20411;-74
2022/03/25 11:19:55;;;;;;;;;;;20.00;74.90;;;;;;8420270;28;20030;-74
2022/03/25 11:23:57;;;;;;;;;;;20.50;78.40;;;;;;8424736;28;19928;-74
2022/03/25 11:28:01;;;;;;;;;;;21.10;81.60;;;;;;8432297;28;20422;-74
2022/03/25 11:32:03;;;;;;;;;;;21.70;82.80;;;;;;8422105;28;19931;-74
2022/03/25 11:36:15;;;;;;;;;;;21.90;79.30;;;;;;8417154;28;19920;-74
2022/03/25 11:40:18;;;;;;;;;;;21.90;78.50;;;;;;8421207;28;19920;-74
2022/03/25 11:44:23;;;;;;;;;;;22.20;77.30;;;;;;8420124;28;19920;-74
2022/03/25 11:48:24;;;;;;;;;;;22.40;77.10;;;;;;8424641;28;19920;-74
2022/03/25 11:52:27;;;;;;;;;;;22.60;76.90;;;;;;8412261;28;19928;-74
2022/03/25 11:56:45;;;;;;;;;;;22.80;75.10;;;;;;8408368;28;19920;-74
2022/03/25 12:00:52;;;;;;;;;;;23.20;77.70;;;;;;8422391;28;20366;-74
2022/03/25 12:04:53;;;;;;;;;;;23.70;79.60;;;;;;8400634;28;20292;-74
2022/03/25 12:09:07;;;;;;;;;;;24.00;80.30;;;;;;8394273;28;20362;-74
2022/03/25 12:13:09;;;;;;;;;;;24.20;80.30;;;;;;8412452;28;20401;-74
2022/03/25 12:17:21;;;;;;;;;;;24.50;78.40;;;;;;8396640;28;20364;-74
2022/03/25 12:21:26;;;;;;;;;;;24.70;76.50;;;;;;8395585;28;20159;-74
2022/03/25 12:25:29;;;;;;;;;;;25.00;75.60;;;;;;8418916;28;19920;-75
2022/03/25 12:29:31;;;;;;;;;;;25.40;75.80;;;;;;8423507;28;20453;-74
2022/03/25 12:33:37;;;;;;;;;;;25.70;74.70;;;;;;8412938;28;20391;-74
2022/03/25 12:37:42;;;;;;;;;;;25.80;72.90;;;;;;8426172;28;20395;-74
2022/03/25 12:41:48;;;;;;;21.92;16.02;;;25.40;68.90;;;;;;8416868;28;19950;-74
2022/03/25 12:45:53;;;;;;;;;;;25.10;65.90;;;;;;8414107;28;19977;-74
2022/03/25 12:49:59;;;;;;;;;;;25.00;63.90;;;;;;8413647;28;19931;-74
2022/03/25 12:54:02;;;;;;;;;;;24.60;60.80;;;;;;8424657;28;19924;-74
2022/03/25 12:58:08;;;;;;;;;;;24.20;56.70;;;;;;8428120;28;19970;-74
2022/03/25 13:02:10;;;;;;;;;;;23.80;53.80;;;;;;8433250;28;19947;-74
2022/03/25 13:06:13;;;;;;;;;;;23.50;51.80;;;;;;8422032;28;19920;-75
2022/03/25 13:10:15;;;;;;;;;;;23.20;50.60;;;;;;8404501;28;19924;-74
2022/03/25 13:14:16;;;;;;;;;;;23.10;49.70;;;;;;8424885;28;19920;-75
2022/03/25 13:18:18;;;;;;;;;;;23.00;49.00;;;;;;8420399;28;19920;-74
2022/03/25 13:22:20;;;;;;;;;;;23.00;48.60;;;;;;8418332;28;19920;-75
2022/03/25 13:26:25;;;;;;;;;;;23.00;48.10;;;;;;8407558;28;19920;-75
2022/03/25 13:30:28;;;;;;;;;;;22.90;47.60;;;;;;8421758;28;19939;-75
2022/03/25 13:34:29;;;;;;;;;;;22.80;47.30;;;;;;8422726;28;19920;-75
2022/03/25 13:38:37;;;;;;;;;;;22.90;47.40;;;;;;8426094;28;19950;-75
2022/03/25 13:42:38;;;;;;;;;;;23.00;47.70;;;;;;8426985;28;20322;-75
2022/03/25 13:46:40;;;;;;;;;;;23.10;47.50;;;;;;8404019;28;19924;-75
2022/03/25 13:50:50;;;;;;;;;;;23.10;46.70;;;;;;8416713;28;20390;-75
2022/03/25 13:55:11;;;;;;;;;;;23.00;46.80;;;;;;8423160;28;19955;-75
2022/03/25 13:59:35;;;;;;;;;;;23.00;46.90;;;;;;8420471;28;19924;-74
2022/03/25 14:03:37;;;;;;;;;;;23.10;46.80;;;;;;8420033;28;20019;-75
2022/03/25 14:07:39;;;;;;;;;;;23.20;46.20;;;;;;8418295;28;19920;-75
2022/03/25 14:11:41;;;;;;;;;;;23.20;46.90;;;;;;8418705;28;19919;-74
2022/03/25 14:15:42;;;;;;;;;;;23.50;46.70;;;;;;8403175;28;19920;-74
2022/03/25 14:20:09;;;;;;;;;;;24.20;48.30;;;;;;8403035;28;20018;-74
2022/03/25 14:28:31;;;;;;;;;;;25.80;52.70;;;;;;8403734;28;19928;-75
2022/03/25 14:32:32;;;;;;;;;;;25.80;52.80;;;;;;8399913;28;19920;-75
2022/03/25 14:36:34;;;;;;;;;;;26.00;53.10;;;;;;8395531;28;19924;-75
2022/03/25 14:40:36;;;;;;;;;;;26.30;53.40;;;;;;8371454;28;19973;-75
2022/03/25 14:44:37;;;;;;;;;;;26.90;54.40;;;;;;8374685;28;20445;-75
2022/03/25 14:48:43;;;;;;;;;;;27.20;53.30;;;;;;8373122;28;20344;-73
2022/03/25 14:52:45;;;;;;;22.17;15.20;;;27.40;52.90;;;;;;8388621;28;19924;-73
2022/03/25 14:56:47;;;;;;;19.98;14.95;;;27.90;52.90;;;;;;8388113;28;20501;-75
2022/03/25 15:00:48;;;;;;;;;;;27.90;52.20;;;;;;8387388;28;20224;-75
2022/03/25 15:04:50;;;;;;;;;;;27.30;49.80;;;;;;8393162;28;19924;-75
2022/03/25 15:08:52;;;;;;;;;;;26.70;48.00;;;;;;8389255;28;19924;-73
2022/03/25 15:12:54;;;;;;;;;;;25.80;46.60;;;;;;8370434;28;19920;-75
2022/03/25 15:16:55;;;;;;;;;;;25.20;46.30;;;;;;8401859;28;19927;-75
2022/03/25 15:20:57;;;;;;;;;;;25.00;46.10;;;;;;8385225;28;19982;-74
2022/03/25 15:24:59;;;;;;;;;;;25.20;46.30;;;;;;8397605;28;19924;-73
2022/03/25 15:29:01;;;;;;;;;;;25.70;47.40;;;;;;8390920;28;19924;-75
2022/03/25 15:37:23;;;;;;;;;;;26.80;49.10;;;;;;8390920;28;19927;-75
2022/03/25 15:41:25;;;;;;;;;;;27.10;48.30;;;;;;8389063;28;19935;-73
2022/03/25 15:45:27;;;;;;;;;;;27.40;48.20;;;;;;8386224;28;19928;-75
2022/03/25 15:49:28;;;;;;;;;;;27.20;47.00;;;;;;8385373;28;19928;-75
2022/03/25 15:53:30;;;;;;;;;;;26.90;47.10;;;;;;8385049;28;19924;-75
2022/03/25 15:57:32;;;;;;;;;;;26.80;46.90;;;;;;8388730;28;19924;-75
2022/03/25 16:01:33;;;;;;;;;;;26.50;45.80;;;;;;8389554;28;19928;-75
2022/03/25 16:05:36;;;;;;;21.00;13.10;;;26.30;45.60;;;;;;8387496;28;19947;-75
2022/03/25 16:09:38;;;;;;;;;;;26.20;45.50;;;;;;8386471;28;20152;-75
2022/03/25 16:13:40;;;;;;;;;;;26.10;45.10;;;;;;8386100;28;19931;-75
2022/03/25 16:17:41;;;;;;;;;;;26.00;44.80;;;;;;8391920;28;19924;-75
2022/03/25 16:21:43;;;;;;;;;;;26.20;44.60;;;;;;8390657;28;19921;-75
2022/03/25 16:25:46;;;;;;;;;;;26.20;44.10;;;;;;8391360;28;19940;-73
2022/03/25 16:29:48;;;;;;;;;;;26.00;43.50;;;;;;8382325;28;19928;-75
2022/03/25 16:33:52;;;;;;;;;;;25.70;43.40;;;;;;8378085;28;19920;-75
2022/03/25 16:37:53;;;;;;;;;;;25.40;42.80;;;;;;8390907;28;19939;-75
2022/03/25 16:41:56;;;;;;;;;;;25.00;42.10;;;;;;8388965;28;19935;-75
2022/03/25 16:45:58;;;;;;;;;;;24.70;42.20;;;;;;8390766;28;19936;-75
2022/03/25 16:49:59;;;;;;;;;;;24.60;42.20;;;;;;8380628;28;19924;-75
2022/03/25 16:54:03;;;;;;;;;;;24.60;42.30;;;;;;8388287;28;19921;-75
2022/03/25 16:58:05;;;;;;;;;;;24.50;42.10;;;;;;8388004;28;19920;-75
2022/03/25 17:02:07;;;;;;;;;;;24.50;42.00;;;;;;8391112;28;19920;-75
2022/03/25 17:06:09;;;;;;;;;;;24.40;41.80;;;;;;8391849;28;20299;-75
2022/03/25 17:10:11;;;;;;;;;;;24.30;41.50;;;;;;8389524;28;20356;-75
2022/03/25 17:14:13;;;;;;;;;;;24.00;41.20;;;;;;8390599;28;19975;-75
2022/03/25 17:18:15;;;;;;;;;;;23.70;40.90;;;;;;8388570;28;19927;-75
2022/03/25 17:22:16;;;;;;;;;;;23.40;40.70;;;;;;8394487;28;20004;-75
2022/03/25 17:26:19;;;;;;;;;;;23.00;40.60;;;;;;8386891;28;19951;-75
2022/03/25 17:30:20;;;;;;;;;;;22.50;40.40;;;;;;8388229;28;19932;-75
2022/03/25 17:34:22;;;;;;;;;;;22.20;40.20;;;;;;8388994;28;19924;-75
2022/03/25 17:38:24;;;;;;;;;;;21.90;40.10;;;;;;8383413;28;19924;-75
2022/03/25 17:42:25;;;;;;;;;;;21.50;39.80;;;;;;8392189;28;20380;-75
2022/03/25 17:46:27;;;;;;;;;;;21.10;39.80;;;;;;8395207;28;19931;-75
2022/03/25 17:50:29;;;;;;;;;;;20.50;39.60;;;;;;8405901;28;19936;-75
2022/03/25 17:54:32;;;;;;;;;;;20.00;39.70;;;;;;8397147;28;19923;-75
2022/03/25 17:58:34;;;;;;;;;;;19.60;39.70;;;;;;8376828;28;19920;-74
2022/03/25 18:02:35;;;;;;;;;;;19.10;39.80;;;;;;8398534;28;19928;-75
2022/03/25 18:06:41;;;;;;;;;;;18.70;39.80;;;;;;8389532;28;19924;-75
2022/03/25 18:10:43;;;;;;;;;;;18.40;39.80;;;;;;8391897;28;20292;-75
2022/03/25 18:14:44;;;;;;;;;;;18.20;39.80;;;;;;8396887;28;19943;-74
2022/03/25 18:18:46;;;;;;;;;;;17.90;39.90;;;;;;8394155;28;19927;-75
2022/03/25 18:22:48;;;;;;;;;;;17.70;40.00;;;;;;8399622;28;20117;-75
2022/03/25 18:26:50;;;;;;;;;;;17.50;40.30;;;;;;8395441;28;19924;-75
2022/03/25 18:30:52;;;;;;;;;;;17.30;40.30;;;;;;8393377;28;19928;-75
2022/03/25 18:34:54;;;;;;;;;;;17.10;40.20;;;;;;8395467;28;19924;-75
2022/03/25 18:38:56;;;;;;;;;;;17.00;40.20;;;;;;8395855;28;19928;-75
2022/03/25 18:42:58;;;;;;;;;;;16.90;40.30;;;;;;8393768;28;19927;-75
2022/03/25 18:47:00;;;;;;;;;;;16.70;40.30;;;;;;8397455;28;19935;-75
2022/03/25 18:51:03;;;;;;;;;;;16.60;40.30;;;;;;8390240;28;19935;-75
2022/03/25 18:55:06;;;;;;;;;;;16.50;40.60;;;;;;8385972;28;19927;-75
2022/03/25 18:59:07;;;;;;;;;;;16.30;40.70;;;;;;8379724;28;19928;-75
2022/03/25 19:03:09;;;;;;;;;;;16.20;40.90;;;;;;8394903;28;19931;-74
2022/03/25 19:07:11;;;;;;;;;;;16.00;41.00;;;;;;8374006;28;19924;-75
2022/03/25 19:11:13;;;;;;;;;;;15.90;41.20;;;;;;8394317;28;19919;-75
2022/03/25 19:15:15;;;;;;;;;;;15.80;41.40;;;;;;8381338;28;19920;-75
2022/03/25 19:19:16;;;;;;;;;;;15.70;41.40;;;;;;8393756;28;19931;-75
2022/03/25 19:23:18;;;;;;;;;;;15.50;41.40;;;;;;8393003;28;19927;-74
2022/03/25 19:27:20;;;;;;;;;;;15.40;41.40;;;;;;8393689;28;19935;-75
2022/03/25 19:31:22;;;;;;;;;;;15.30;41.80;;;;;;8393875;28;19928;-75
2022/03/25 19:35:23;;;;;;;;;;;15.10;41.90;;;;;;8403349;28;20008;-75
2022/03/25 19:39:25;;;;;;;;;;;15.00;42.00;;;;;;8402071;28;19920;-74
2022/03/25 19:43:30;;;;;;;;;;;14.90;42.20;;;;;;8392459;28;19946;-75
2022/03/25 19:47:31;;;;;;;;;;;14.80;42.30;;;;;;8400725;28;19924;-74
2022/03/25 19:51:34;;;;;;;;;;;14.70;42.40;;;;;;8390594;28;19921;-74
2022/03/25 19:55:38;;;;;;;;;;;14.60;42.70;;;;;;8385976;28;19957;-75
2022/03/25 19:59:40;;;;;;;;;;;14.40;42.90;;;;;;8367693;28;19924;-75
2022/03/25 20:03:42;;;;;;;;;;;14.40;43.10;;;;;;8401708;28;19928;-74
2022/03/25 20:07:43;;;;;;;;;;;14.20;43.40;;;;;;8392248;28;20621;-74
2022/03/25 20:11:45;;;;;;;;;;;14.10;43.40;;;;;;8393073;28;20295;-75
2022/03/25 20:15:47;;;;;;;;;;;14.00;43.40;;;;;;8371516;28;19920;-75
2022/03/25 20:19:48;;;;;;;;;;;13.90;43.60;;;;;;8376068;28;19924;-75
2022/03/25 20:23:50;;;;;;;;;;;13.80;44.00;;;;;;8391318;28;20429;-74
2022/03/25 20:27:53;;;;;;;;;;;13.70;44.30;;;;;;8391587;28;19924;-74
2022/03/25 20:31:59;;;;;;;;;;;13.60;44.30;;;;;;8393807;28;19927;-74
2022/03/25 20:36:02;;;;;;;;;;;13.50;44.40;;;;;;8391502;28;19951;-73
2022/03/25 20:40:05;;;;;;;;;;;13.50;44.20;;;;;;8386971;28;20041;-73
2022/03/25 20:44:07;;;;;;;;;;;13.50;44.20;;;;;;8391776;28;20650;-73
2022/03/25 20:48:08;;;;;;;;;;;13.40;44.20;;;;;;8391046;28;19920;-73
2022/03/25 20:52:10;;;;;;;;;;;13.40;44.20;;;;;;8378781;28;19923;-73
2022/03/25 20:56:12;;;;;;;;;;;13.40;44.40;;;;;;8372708;28;19943;-73
2022/03/25 21:00:14;;;;;;;;;;;13.30;44.30;;;;;;8390847;28;20346;-73
2022/03/25 21:04:16;;;;;;;;;;;13.30;44.40;;;;;;8390713;28;19928;-73
2022/03/25 21:08:17;;;;;;;;;;;13.30;44.40;;;;;;8372829;28;20367;-73
2022/03/25 21:12:32;;;;;;;;;;;13.30;44.50;;;;;;8389987;28;20295;-73
2022/03/25 21:16:33;;;;;;;;;;;13.20;44.30;;;;;;8397054;28;19920;-73
2022/03/25 21:20:35;;;;;;;;;;;13.00;44.40;;;;;;8375965;28;20386;-73
2022/03/25 21:24:37;;;;;;;;;;;12.90;44.60;;;;;;8395140;28;20407;-73
2022/03/25 21:28:39;;;;;;;;;;;12.80;44.90;;;;;;8401654;28;19924;-73
2022/03/25 21:32:40;;;;;;;;;;;12.70;45.20;;;;;;8396076;28;20387;-73
2022/03/25 21:36:42;;;;;;;;;;;12.60;45.20;;;;;;8400101;28;20386;-73
2022/03/25 21:40:45;;;;;;;;;;;12.50;45.60;;;;;;8394125;28;19970;-73
2022/03/25 21:44:46;;;;;;;;;;;12.40;46.00;;;;;;8384949;28;20371;-73
2022/03/25 21:48:48;;;;;;;;;;;12.30;46.50;;;;;;8384860;28;19932;-73
2022/03/25 21:52:52;;;;;;;;;;;12.20;46.60;;;;;;8407738;28;20405;-73
2022/03/25 21:56:53;;;;;;;;;;;12.20;47.00;;;;;;8391921;28;19947;-73
2022/03/25 22:00:55;;;;;;;;;;;12.10;47.50;;;;;;8395254;28;20290;-73
2022/03/25 22:04:57;;;;;;;;;;;12.10;47.50;;;;;;8416567;28;19954;-73
2022/03/25 22:09:00;;;;;;;;;;;12.00;47.60;;;;;;8422314;28;19931;-73
2022/03/25 22:13:04;;;;;;;;;;;11.90;47.60;;;;;;8408312;28;20008;-73
2022/03/25 22:17:06;;;;;;;;;;;11.90;48.00;;;;;;8406955;28;19924;-74
2022/03/25 22:21:08;;;;;;;;;;;11.80;48.20;;;;;;8411894;28;19935;-73
2022/03/25 22:25:10;;;;;;;;;;;11.70;48.30;;;;;;8414825;28;19935;-73
2022/03/25 22:29:11;;;;;;;;;;;11.70;48.80;;;;;;8398704;28;19928;-73
2022/03/25 22:33:14;;;;;;;;;;;11.60;48.50;;;;;;8418045;28;19968;-73
2022/03/25 22:37:16;;;;;;;;;;;11.50;48.70;;;;;;8390981;28;19928;-73
2022/03/25 22:41:17;;;;;;;;;;;11.40;49.10;;;;;;8405224;28;20450;-73
2022/03/25 22:45:20;;;;;;;;;;;11.40;49.60;;;;;;8401435;28;19973;-73
2022/03/25 22:49:21;;;;;;;;;;;11.30;49.70;;;;;;8419764;28;19932;-73
2022/03/25 22:53:23;;;;;;;;;;;11.20;49.70;;;;;;8391367;28;19956;-73
2022/03/25 22:57:25;;;;;;;;;;;11.10;49.90;;;;;;8418348;28;19932;-73
2022/03/25 23:01:28;;;;;;;;;;;11.00;49.60;;;;;;8406313;28;19924;-73
2022/03/25 23:05:30;;;;;;;;;;;11.00;49.80;;;;;;8412842;28;20031;-73
2022/03/25 23:09:32;;;;;;;;;;;10.90;50.20;;;;;;8393255;28;19935;-73
2022/03/25 23:13:33;;;;;;;;;;;10.80;50.00;;;;;;8404162;28;19928;-73
2022/03/25 23:17:36;;;;;;;;;;;10.80;50.00;;;;;;8399454;28;19931;-73
2022/03/25 23:21:37;;;;;;;;;;;10.80;49.90;;;;;;8410670;28;19931;-73
2022/03/25 23:25:39;;;;;;;;;;;10.70;49.70;;;;;;8408086;28;19931;-73
2022/03/25 23:29:42;;;;;;;;;;;10.60;50.00;;;;;;8407359;28;19931;-73
2022/03/25 23:33:44;;;;;;;;;;;10.50;49.70;;;;;;8377233;28;19931;-73
2022/03/25 23:37:45;;;;;;;;;;;10.50;49.80;;;;;;8420239;28;19966;-73
2022/03/25 23:41:47;;;;;;;;;;;10.50;49.90;;;;;;8412746;28;19931;-73
2022/03/25 23:45:49;;;;;;;;;;;10.40;49.80;;;;;;8399373;28;19924;-73